Time;durP1;ratioP1;P1;durP2;ratioP2;P2;SDS_P1;SDS_P2;PMS_P1;PMS_P2;Temp;Humidity;BMP_temperature;BMP_pressure;BME280_temperature;BME280_humidity;BME280_pressure;Samples;Min_cycle;Max_cycle;Signal;HPM_P1;HPM_P2
2023/12/14 00:02:07;;;;;;;14.25;10.13;;;307.50;2304.00;;;;;;5091694;28;20024;-67
2023/12/14 00:04:32;;;;;;;17.13;11.85;;;307.40;2304.00;;;;;;5091534;28;20044;-66
2023/12/14 00:06:58;;;;;;;14.48;9.93;;;307.40;2304.00;;;;;;5089153;28;20028;-68
2023/12/14 00:09:24;;;;;;;16.23;12.63;;;307.60;2304.00;;;;;;5087962;28;20020;-66
2023/12/14 00:11:50;;;;;;;52.92;32.05;;;307.50;2304.00;;;;;;5074786;28;20052;-65
2023/12/14 00:14:15;;;;;;;13.20;10.20;;;307.40;2304.00;;;;;;5073202;28;20100;-67
2023/12/14 00:16:41;;;;;;;17.88;11.52;;;307.50;2304.00;;;;;;5072014;28;20036;-68
2023/12/14 00:19:07;;;;;;;19.92;16.15;;;307.60;2304.00;;;;;;5071764;28;20471;-66
2023/12/14 00:21:33;;;;;;;12.95;10.13;;;307.60;2304.00;;;;;;5072753;28;20115;-66
2023/12/14 00:23:58;;;;;;;12.25;9.88;;;307.50;2304.00;;;;;;5065913;28;20489;-66
2023/12/14 00:26:24;;;;;;;10.98;9.35;;;307.40;2304.00;;;;;;5072949;28;20024;-66
2023/12/14 00:28:50;;;;;;;11.70;9.70;;;307.20;2304.00;;;;;;5085098;28;20020;-68
2023/12/14 00:31:17;;;;;;;10.65;8.57;;;307.30;2304.00;;;;;;5075574;28;20110;-65
2023/12/14 00:33:43;;;;;;;10.82;8.50;;;307.20;2304.00;;;;;;5086684;28;20036;-66
2023/12/14 00:36:09;;;;;;;14.02;10.68;;;307.30;2304.00;;;;;;5085726;28;20466;-65
2023/12/14 00:38:36;;;;;;;12.95;9.90;;;282.50;2278.40;;;;;;5088853;28;20434;-67
2023/12/14 00:41:01;;;;;;;16.70;11.10;;;282.50;2278.40;;;;;;5072959;28;20024;-67
2023/12/14 00:43:27;;;;;;;8.95;6.75;;;307.30;2304.00;;;;;;5071723;28;20021;-67
2023/12/14 00:45:53;;;;;;;10.65;7.18;;;307.20;2304.00;;;;;;5072357;28;20378;-67
2023/12/14 00:48:19;;;;;;;9.63;7.95;;;307.20;2304.00;;;;;;5072109;28;20108;-67
2023/12/14 00:50:44;;;;;;;15.82;11.57;;;307.30;2304.00;;;;;;5077950;28;20020;-65
2023/12/14 00:53:10;;;;;;;14.48;9.93;;;307.30;2304.00;;;;;;5078462;28;20038;-67
2023/12/14 00:55:36;;;;;;;13.00;8.95;;;307.60;2304.00;;;;;;5069718;28;20107;-67
2023/12/14 00:58:01;;;;;;;13.15;8.52;;;307.20;2304.00;;;;;;5067089;28;20029;-67
2023/12/14 01:00:27;;;;;;;14.90;11.07;;;307.30;2304.00;;;;;;5072321;28;20021;-66
2023/12/14 01:02:53;;;;;;;13.60;8.73;;;307.30;2304.00;;;;;;5074459;28;20053;-68
2023/12/14 01:05:19;;;;;;;19.70;15.07;;;307.30;2304.00;;;;;;5074876;28;20036;-67
2023/12/14 01:07:44;;;;;;;23.75;16.30;;;307.30;2304.00;;;;;;5078764;28;20024;-66
2023/12/14 01:10:10;;;;;;;10.90;9.38;;;307.40;2304.00;;;;;;5075299;28;20052;-64
2023/12/14 01:12:36;;;;;;;22.92;15.23;;;307.50;2304.00;;;;;;5076723;28;20040;-67
2023/12/14 01:15:02;;;;;;;12.70;9.57;;;307.40;2304.00;;;;;;5075440;28;20024;-65
2023/12/14 01:17:28;;;;;;;12.02;8.18;;;307.20;2304.00;;;;;;5077790;28;20355;-67
2023/12/14 01:19:54;;;;;;;9.20;7.22;;;282.50;2278.40;;;;;;5077509;28;20027;-67
2023/12/14 01:22:20;;;;;;;25.85;17.52;;;307.30;2304.00;;;;;;5090925;28;20016;-66
2023/12/14 01:24:45;;;;;;;13.38;9.45;;;307.40;2304.00;;;;;;5076658;28;20065;-67
2023/12/14 01:27:13;;;;;;;20.13;14.40;;;307.40;2304.00;;;;;;5085483;28;20037;-67
2023/12/14 01:29:39;;;;;;;97.00;67.53;;;282.50;2278.40;;;;;;5059399;28;20021;-67
2023/12/14 01:32:05;;;;;;;59.30;40.47;;;307.30;2304.00;;;;;;5078375;28;20058;-66
2023/12/14 01:34:31;;;;;;;27.92;20.52;;;307.30;2304.00;;;;;;5078451;28;20028;-67
2023/12/14 01:36:56;;;;;;;36.65;24.27;;;307.50;2304.00;;;;;;5089108;28;20066;-69
2023/12/14 01:39:22;;;;;;;26.05;15.55;;;307.50;2304.00;;;;;;5078277;28;20008;-69
2023/12/14 01:41:49;;;;;;;19.70;14.15;;;307.40;2304.00;;;;;;5075762;28;20421;-69
2023/12/14 01:44:14;;;;;;;16.13;12.13;;;307.30;2304.00;;;;;;5070095;28;20028;-66
2023/12/14 01:46:40;;;;;;;41.40;24.38;;;307.20;2304.00;;;;;;5083476;28;20121;-66
2023/12/14 01:49:06;;;;;;;25.70;20.98;;;307.30;2304.00;;;;;;5069611;28;20470;-69
2023/12/14 01:51:33;;;;;;;14.25;10.50;;;307.20;2304.00;;;;;;5069852;28;20032;-67
2023/12/14 01:53:59;;;;;;;32.95;23.70;;;307.30;2304.00;;;;;;5078059;28;20111;-66
2023/12/14 01:56:25;;;;;;;18.20;14.20;;;282.50;2278.40;;;;;;5090446;28;20491;-68
2023/12/14 01:58:50;;;;;;;17.95;11.40;;;307.20;2304.00;;;;;;5081946;28;20095;-68
2023/12/14 02:01:19;;;;;;;17.40;13.43;;;282.50;2278.40;;;;;;5068789;28;20071;-67
2023/12/14 02:03:46;;;;;;;15.63;8.63;;;282.50;2278.40;;;;;;5054759;28;20052;-66
2023/12/14 02:06:11;;;;;;;10.68;7.00;;;282.50;2278.40;;;;;;5061189;28;20040;-67
2023/12/14 02:08:37;;;;;;;9.95;7.85;;;307.20;2304.00;;;;;;5081587;28;20032;-67
2023/12/14 02:11:03;;;;;;;9.98;6.18;;;307.20;2304.00;;;;;;5069511;28;20528;-66
2023/12/14 02:13:29;;;;;;;7.57;6.20;;;307.20;2304.00;;;;;;5069758;28;20025;-68
2023/12/14 02:15:54;;;;;;;8.07;5.25;;;307.20;2304.00;;;;;;5082890;28;20051;-66
2023/12/14 02:18:20;;;;;;;8.10;4.50;;;282.50;2278.40;;;;;;5077695;28;20493;-68
2023/12/14 02:20:46;;;;;;;5.88;4.35;;;282.50;2278.40;;;;;;5089913;28;20034;-65
2023/12/14 02:23:12;;;;;;;6.97;5.15;;;282.50;2278.40;;;;;;5081501;28;20458;-67
2023/12/14 02:25:37;;;;;;;9.07;5.75;;;307.20;2304.00;;;;;;5070517;28;20024;-67
2023/12/14 02:28:03;;;;;;;8.52;4.20;;;282.50;2278.40;;;;;;5089935;28;20412;-66
2023/12/14 02:30:29;;;;;;;9.00;5.70;;;282.40;2278.40;;;;;;5083815;28;20540;-66
2023/12/14 02:32:55;;;;;;;11.63;6.78;;;282.10;2278.40;;;;;;5077951;28;20112;-69
2023/12/14 02:35:22;;;;;;;8.73;6.63;;;282.00;2278.40;;;;;;5072288;28;20036;-68
2023/12/14 02:37:48;;;;;;;9.40;6.72;;;281.80;2278.40;;;;;;5068777;28;20031;-68
2023/12/14 02:40:14;;;;;;;9.52;6.13;;;282.00;2099.20;;;;;;5071270;28;20386;-67
2023/12/14 02:42:40;;;;;;;7.00;4.85;;;282.20;2278.40;;;;;;5070403;28;20033;-66
2023/12/14 02:45:07;;;;;;;10.68;7.00;;;282.30;2278.40;;;;;;5078484;28;20038;-66
2023/12/14 02:47:33;;;;;;;11.25;7.28;;;282.30;2278.40;;;;;;5078303;28;20028;-68
2023/12/14 02:49:58;;;;;;;13.45;9.43;;;282.10;2278.40;;;;;;5072806;28;20028;-67
2023/12/14 02:52:24;;;;;;;19.55;12.90;;;282.00;2278.40;;;;;;5069540;28;20052;-67
2023/12/14 02:54:50;;;;;;;20.00;14.35;;;281.90;2278.40;;;;;;5069009;28;20021;-68
2023/12/14 02:57:16;;;;;;;27.08;18.38;;;282.00;2278.40;;;;;;5077957;28;20031;-67
2023/12/14 02:59:42;;;;;;;19.45;14.05;;;282.10;2278.40;;;;;;5075912;28;20549;-66
2023/12/14 03:02:07;;;;;;;21.58;19.20;;;282.00;2278.40;;;;;;5089069;28;20385;-67
2023/12/14 03:04:33;;;;;;;14.15;11.07;;;282.00;2278.40;;;;;;5088753;28;20127;-67
2023/12/14 03:07:02;;;;;;;8.05;4.90;;;282.10;2278.40;;;;;;5089137;28;20462;-67
2023/12/14 03:09:31;;;;;;;7.28;5.07;;;282.20;2278.40;;;;;;5086359;28;20492;-67
2023/12/14 03:11:57;;;;;;;9.80;7.88;;;282.10;2278.40;;;;;;5078649;28;20063;-68
2023/12/14 03:14:23;;;;;;;8.68;6.15;;;282.10;2278.40;;;;;;5075864;28;20101;-67
2023/12/14 03:16:49;;;;;;;6.28;4.07;;;282.10;2278.40;;;;;;5089194;28;20031;-68
2023/12/14 03:19:17;;;;;;;3.60;2.47;;;282.10;2278.40;;;;;;5089003;28;20012;-65
2023/12/14 03:21:43;;;;;;;4.28;1.88;;;282.10;2278.40;;;;;;5073505;28;20029;-66
2023/12/14 03:24:12;;;;;;;2.38;1.38;;;282.10;2278.40;;;;;;5067623;28;20039;-66
2023/12/14 03:26:37;;;;;;;3.20;1.63;;;282.10;2278.40;;;;;;5068636;28;20039;-67
2023/12/14 03:29:03;;;;;;;3.50;2.38;;;282.20;2278.40;;;;;;5085446;28;20020;-66
2023/12/14 03:31:29;;;;;;;3.92;2.20;;;282.20;2278.40;;;;;;5078827;28;20017;-66
2023/12/14 03:33:55;;;;;;;2.78;2.17;;;282.20;2278.40;;;;;;5085594;28;20524;-68
2023/12/14 03:36:22;;;;;;;3.85;2.03;;;282.20;2278.40;;;;;;5088985;28;20052;-67
2023/12/14 03:38:48;;;;;;;4.47;3.05;;;282.10;2278.40;;;;;;5058160;28;20524;-66
2023/12/14 03:41:14;;;;;;;5.82;3.63;;;282.10;2278.40;;;;;;5079033;28;20024;-66
2023/12/14 03:43:39;;;;;;;3.47;1.80;;;282.10;2278.40;;;;;;5085066;28;20022;-66
2023/12/14 03:46:06;;;;;;;2.00;1.35;;;282.10;2278.40;;;;;;5078979;28;20038;-67
2023/12/14 03:48:32;;;;;;;5.07;2.90;;;282.10;2278.40;;;;;;5086752;28;20044;-67
2023/12/14 03:51:01;;;;;;;2.83;1.55;;;282.10;2278.40;;;;;;5066405;28;20104;-68
2023/12/14 03:53:27;;;;;;;2.97;1.58;;;282.00;2278.40;;;;;;5067299;28;20358;-67
2023/12/14 03:55:53;;;;;;;8.27;5.32;;;282.00;2278.40;;;;;;5092692;28;20077;-67
2023/12/14 03:58:18;;;;;;;6.88;4.57;;;282.10;2278.40;;;;;;5074651;28;20031;-67
2023/12/14 04:00:45;;;;;;;5.05;3.05;;;282.10;2278.40;;;;;;5083206;28;20035;-66
2023/12/14 04:03:11;;;;;;;3.95;2.35;;;282.10;2278.40;;;;;;5087490;28;20052;-68
2023/12/14 04:05:38;;;;;;;3.00;1.63;;;282.10;2278.40;;;;;;5071981;28;20758;-66
2023/12/14 04:08:04;;;;;;;3.33;2.03;;;282.10;2278.40;;;;;;5085363;28;20028;-69
2023/12/14 04:10:30;;;;;;;2.03;1.05;;;282.10;2278.40;;;;;;5071897;28;20733;-71
2023/12/14 04:12:56;;;;;;;2.50;1.25;;;282.10;2278.40;;;;;;5090199;28;20066;-67
2023/12/14 04:15:22;;;;;;;3.95;2.50;;;282.00;2278.40;;;;;;5086134;28;20021;-64
2023/12/14 04:17:48;;;;;;;4.43;2.60;;;282.00;2278.40;;;;;;5075637;28;20032;-68
2023/12/14 04:20:15;;;;;;;4.43;2.80;;;282.00;2278.40;;;;;;5091816;28;20050;-67
2023/12/14 04:22:43;;;;;;;3.95;2.30;;;282.10;2278.40;;;;;;5091956;28;20057;-66
2023/12/14 04:25:08;;;;;;;5.97;2.60;;;282.10;2278.40;;;;;;5079577;28;20029;-69
2023/12/14 04:27:34;;;;;;;4.70;2.75;;;282.00;2278.40;;;;;;5086828;28;20028;-66
2023/12/14 04:30:00;;;;;;;2.63;1.52;;;282.00;2278.40;;;;;;5073622;28;20094;-65
2023/12/14 04:32:26;;;;;;;1.92;1.17;;;282.00;2278.40;;;;;;5089332;28;20118;-66
2023/12/14 04:34:52;;;;;;;2.90;1.52;;;282.00;2278.40;;;;;;5080343;28;20072;-69
2023/12/14 04:37:18;;;;;;;5.63;2.50;;;281.90;2278.40;;;;;;5075864;28;20020;-67
2023/12/14 04:39:44;;;;;;;4.47;2.58;;;282.00;2278.40;;;;;;5080691;28;20073;-66
2023/12/14 04:42:10;;;;;;;6.13;2.05;;;282.10;2278.40;;;;;;5089408;28;20427;-65
2023/12/14 04:44:35;;;;;;;2.15;1.42;;;282.00;2278.40;;;;;;5080183;28;20032;-66
2023/12/14 04:47:01;;;;;;;5.30;1.77;;;282.00;2278.40;;;;;;5088972;28;20039;-67
2023/12/14 04:49:27;;;;;;;4.22;1.63;;;282.00;2278.40;;;;;;5079872;28;20023;-68
2023/12/14 04:51:53;;;;;;;2.60;1.63;;;281.90;2278.40;;;;;;5084874;28;20489;-66
2023/12/14 04:54:18;;;;;;;4.65;2.95;;;282.00;2278.40;;;;;;5082573;28;20454;-66
2023/12/14 04:56:47;;;;;;;5.55;3.50;;;282.00;2278.40;;;;;;5073444;28;20036;-66
2023/12/14 04:59:13;;;;;;;6.75;2.80;;;281.90;2278.40;;;;;;5057251;28;20049;-67
2023/12/14 05:01:39;;;;;;;3.78;3.13;;;281.90;2278.40;;;;;;5068943;28;20477;-66
2023/12/14 05:04:04;;;;;;;4.15;2.60;;;281.80;2278.40;;;;;;5082366;28;20044;-68
2023/12/14 05:06:33;;;;;;;3.67;1.85;;;281.80;2278.40;;;;;;5072169;28;20390;-66
2023/12/14 05:08:58;;;;;;;3.05;1.65;;;281.80;2278.40;;;;;;5082759;28;20028;-66
2023/12/14 05:11:24;;;;;;;2.83;1.65;;;281.90;2278.40;;;;;;5091144;28;20020;-69
2023/12/14 05:13:50;;;;;;;4.80;1.90;;;281.90;2278.40;;;;;;5079053;28;20537;-66
2023/12/14 05:16:17;;;;;;;4.82;2.85;;;282.00;2278.40;;;;;;5084170;28;20028;-66
2023/12/14 05:18:42;;;;;;;6.55;4.43;;;281.90;2278.40;;;;;;5082944;28;20016;-65
2023/12/14 05:21:08;;;;;;;4.82;2.50;;;281.90;2278.40;;;;;;5076717;28;20042;-66
2023/12/14 05:23:34;;;;;;;2.95;1.60;;;281.80;2278.40;;;;;;5091100;28;20030;-67
2023/12/14 05:26:00;;;;;;;4.43;2.33;;;281.80;2278.40;;;;;;5090728;28;20020;-67
2023/12/14 05:28:25;;;;;;;4.80;2.30;;;281.80;2278.40;;;;;;5090101;28;20051;-66
2023/12/14 05:30:51;;;;;;;2.92;1.73;;;281.80;2278.40;;;;;;5074217;28;20497;-67
2023/12/14 05:33:17;;;;;;;2.25;1.60;;;281.80;2278.40;;;;;;5061770;28;20032;-67
2023/12/14 05:35:43;;;;;;;3.55;1.90;;;281.80;2278.40;;;;;;5070825;28;20425;-67
2023/12/14 05:38:09;;;;;;;2.55;1.75;;;281.80;2278.40;;;;;;5083783;28;20514;-67
2023/12/14 05:40:34;;;;;;;2.78;1.60;;;281.90;2278.40;;;;;;5078028;28;20111;-67
2023/12/14 05:43:00;;;;;;;6.90;4.45;;;281.90;2278.40;;;;;;5083580;28;20042;-67
2023/12/14 05:45:26;;;;;;;7.97;4.22;;;281.90;2278.40;;;;;;5070477;28;20482;-71
2023/12/14 05:47:51;;;;;;;15.80;6.88;;;281.80;2278.40;;;;;;5076234;28;20390;-67
2023/12/14 05:50:17;;;;;;;5.50;2.15;;;281.70;2278.40;;;;;;5082085;28;20016;-66
2023/12/14 05:52:45;;;;;;;21.75;12.98;;;281.70;2278.40;;;;;;5090132;28;20050;-65
2023/12/14 05:55:11;;;;;;;12.63;6.10;;;281.70;2278.40;;;;;;5070467;28;20024;-66
2023/12/14 05:57:37;;;;;;;27.27;15.55;;;256.90;2252.80;;;;;;5069853;28;20452;-66
2023/12/14 06:00:05;;;;;;;252.07;157.13;;;256.80;2252.80;;;;;;5070976;28;20027;-66
2023/12/14 06:02:32;;;;;;;16.38;10.63;;;256.90;2252.80;;;;;;5082926;28;20066;-67
2023/12/14 06:04:58;;;;;;;9.45;5.53;;;281.60;2278.40;;;;;;5071826;28;20056;-66
2023/12/14 06:07:24;;;;;;;11.40;7.40;;;281.70;2278.40;;;;;;5069816;28;21379;-66
2023/12/14 06:09:50;;;;;;;34.45;17.30;;;281.80;2278.40;;;;;;5080879;28;20040;-66
2023/12/14 06:12:16;;;;;;;84.35;43.28;;;282.00;2278.40;;;;;;5076083;28;20055;-66
2023/12/14 06:14:42;;;;;;;15.50;10.38;;;282.00;2278.40;;;;;;5079845;28;20104;-66
2023/12/14 06:17:07;;;;;;;127.40;68.82;;;282.10;2278.40;;;;;;5069496;28;20362;-66
2023/12/14 06:19:33;;;;;;;91.80;52.65;;;282.00;2278.40;;;;;;5069737;28;20362;-65
2023/12/14 06:21:59;;;;;;;139.30;89.03;;;282.00;2278.40;;;;;;5082880;28;20457;-66
2023/12/14 06:24:24;;;;;;;45.15;30.63;;;281.90;2278.40;;;;;;5069824;28;20100;-67
2023/12/14 06:26:50;;;;;;;102.68;78.88;;;281.80;2278.40;;;;;;5069184;28;20043;-67
2023/12/14 06:29:16;;;;;;;53.55;37.47;;;281.80;2278.40;;;;;;5088252;28;20024;-66
2023/12/14 06:31:42;;;;;;;39.42;26.48;;;281.80;2278.40;;;;;;5077776;28;20122;-65
2023/12/14 06:34:08;;;;;;;35.65;23.45;;;281.90;2278.40;;;;;;5081414;28;20020;-65
2023/12/14 06:36:34;;;;;;;30.50;19.80;;;281.90;2278.40;;;;;;5084882;28;20081;-66
2023/12/14 06:39:01;;;;;;;33.10;21.23;;;282.00;2278.40;;;;;;5067136;28;20052;-69
2023/12/14 06:41:28;;;;;;;41.50;32.15;;;282.00;2278.40;;;;;;5076992;28;20024;-66
2023/12/14 06:43:54;;;;;;;75.65;52.83;;;282.10;2278.40;;;;;;5082118;28;20372;-66
2023/12/14 06:46:20;;;;;;;32.33;22.35;;;282.20;2278.40;;;;;;5086069;28;20029;-67
2023/12/14 06:48:47;;;;;;;31.45;21.77;;;282.40;2278.40;;;;;;5087985;28;20502;-66
2023/12/14 06:51:13;;;;;;;47.33;36.15;;;282.40;2278.40;;;;;;5069158;28;20470;-67
2023/12/14 06:53:43;;;;;;;61.13;48.35;;;282.40;2278.40;;;;;;5083986;28;20039;-66
2023/12/14 06:56:10;;;;;;;51.80;37.42;;;282.30;2278.40;;;;;;5080568;28;20028;-65
2023/12/14 06:58:41;;;;;;;50.33;38.97;;;282.40;2278.40;;;;;;5069319;28;20032;-65
2023/12/14 07:01:07;;;;;;;71.07;59.00;;;282.40;2278.40;;;;;;5083484;28;20030;-67
2023/12/14 07:03:33;;;;;;;62.58;47.22;;;282.20;2278.40;;;;;;5087407;28;20040;-66
2023/12/14 07:05:59;;;;;;;62.92;44.85;;;282.30;2278.40;;;;;;5080681;28;20024;-68
2023/12/14 07:08:25;;;;;;;70.40;51.78;;;282.30;2278.40;;;;;;5063457;28;20363;-63
2023/12/14 07:10:50;;;;;;;64.15;48.50;;;282.50;2278.40;;;;;;5075260;28;20036;-62
2023/12/14 07:13:16;;;;;;;369.80;232.88;;;282.50;2278.40;;;;;;5072385;28;20035;-64
2023/12/14 07:15:42;;;;;;;90.28;63.90;;;282.50;2278.40;;;;;;5069250;28;20021;-66
2023/12/14 07:18:08;;;;;;;61.28;45.97;;;282.40;2278.40;;;;;;5084615;28;20402;-65
2023/12/14 07:20:34;;;;;;;60.08;45.75;;;282.40;2278.40;;;;;;5080219;28;20040;-63
2023/12/14 07:22:59;;;;;;;96.03;69.63;;;282.50;2278.40;;;;;;5083370;28;20036;-63
2023/12/14 07:25:25;;;;;;;114.28;79.50;;;307.20;2304.00;;;;;;5074205;28;20051;-62
2023/12/14 07:27:51;;;;;;;83.68;66.10;;;282.50;2278.40;;;;;;5086153;28;20044;-64
2023/12/14 07:30:17;;;;;;;60.97;45.35;;;282.50;2278.40;;;;;;5088890;28;20030;-63
2023/12/14 07:32:43;;;;;;;47.72;38.78;;;282.50;2278.40;;;;;;5087772;28;20067;-62
2023/12/14 07:35:10;;;;;;;40.35;31.85;;;307.20;2304.00;;;;;;5084280;28;20024;-63
2023/12/14 07:37:35;;;;;;;21.58;16.52;;;282.50;2278.40;;;;;;5059243;28;20079;-62
2023/12/14 07:40:03;;;;;;;11.00;9.90;;;307.20;2304.00;;;;;;5070816;28;20052;-63
2023/12/14 07:42:28;;;;;;;29.58;22.83;;;307.30;2304.00;;;;;;5078065;28;20024;-63
2023/12/14 07:44:54;;;;;;;40.70;28.98;;;307.30;2304.00;;;;;;5093116;28;20069;-66
2023/12/14 07:47:20;;;;;;;45.05;31.20;;;307.30;2304.00;;;;;;5078699;28;20533;-65
2023/12/14 07:49:46;;;;;;;44.63;33.40;;;307.30;2304.00;;;;;;5083766;28;20037;-63
2023/12/14 07:52:13;;;;;;;52.33;35.50;;;307.30;2304.00;;;;;;5079792;28;20036;-64
2023/12/14 07:54:39;;;;;;;73.60;51.63;;;307.30;2304.00;;;;;;5079349;28;20107;-62
2023/12/14 07:57:05;;;;;;;130.55;98.10;;;307.40;2304.00;;;;;;5080421;28;20027;-62
2023/12/14 07:59:31;;;;;;;48.95;38.80;;;307.20;2304.00;;;;;;5084883;28;20020;-63
2023/12/14 08:01:57;;;;;;;20.15;14.75;;;282.50;2278.40;;;;;;5081482;28;20095;-63
2023/12/14 08:04:23;;;;;;;118.43;87.38;;;307.30;2304.00;;;;;;5082080;28;20040;-62
2023/12/14 08:06:49;;;;;;;94.38;65.93;;;282.30;2278.40;;;;;;5081341;28;20044;-63
2023/12/14 08:09:15;;;;;;;89.88;64.72;;;282.20;2278.40;;;;;;5072856;28;20027;-64
2023/12/14 08:11:40;;;;;;;38.40;27.35;;;282.30;2278.40;;;;;;5077856;28;20044;-64
2023/12/14 08:14:06;;;;;;;52.72;42.65;;;282.40;2278.40;;;;;;5071321;28;20516;-62
2023/12/14 08:16:32;;;;;;;17.15;12.13;;;282.50;2278.40;;;;;;5090127;28;20053;-63
2023/12/14 08:18:58;;;;;;;8.25;5.85;;;282.50;2278.40;;;;;;5089801;28;20024;-65
2023/12/14 08:21:24;;;;;;;18.45;16.48;;;282.50;2278.40;;;;;;5087743;28;20036;-65
2023/12/14 08:23:49;;;;;;;12.43;10.63;;;282.50;2278.40;;;;;;5089842;28;20032;-65
2023/12/14 08:26:15;;;;;;;25.50;19.75;;;282.50;2278.40;;;;;;5088755;28;20039;-63
2023/12/14 08:28:42;;;;;;;12.82;8.75;;;282.50;2278.40;;;;;;5091619;28;20028;-65
2023/12/14 08:31:09;;;;;;;75.80;51.08;;;307.20;2304.00;;;;;;5086617;28;20020;-64
2023/12/14 08:33:35;;;;;;;9.00;6.57;;;282.40;2278.40;;;;;;5085575;28;20020;-63
2023/12/14 08:36:02;;;;;;;14.45;8.50;;;307.20;2304.00;;;;;;5077136;28;20142;-63
2023/12/14 08:38:28;;;;;;;19.60;14.50;;;307.30;2304.00;;;;;;5083461;28;20028;-64
2023/12/14 08:40:54;;;;;;;12.52;8.80;;;307.30;2304.00;;;;;;5078468;28;20023;-64
2023/12/14 08:43:21;;;;;;;17.13;10.73;;;307.30;2304.00;;;;;;5081315;28;20363;-64
2023/12/14 08:45:48;;;;;;;20.60;13.27;;;307.30;2304.00;;;;;;5075107;28;20060;-64
2023/12/14 08:48:14;;;;;;;20.08;12.75;;;307.40;2304.00;;;;;;5084118;28;20111;-64
2023/12/14 08:50:40;;;;;;;75.88;40.47;;;307.30;2304.00;;;;;;5070785;28;20048;-64
2023/12/14 08:53:06;;;;;;;24.23;14.85;;;307.30;2304.00;;;;;;5071295;28;20059;-63
2023/12/14 08:55:32;;;;;;;12.98;9.30;;;307.30;2304.00;;;;;;5071935;28;20032;-63
2023/12/14 08:57:58;;;;;;;7.88;5.57;;;307.30;2304.00;;;;;;5083829;28;20028;-64
2023/12/14 09:00:24;;;;;;;9.25;6.20;;;307.30;2304.00;;;;;;5085346;28;20028;-64
2023/12/14 09:02:50;;;;;;;7.90;5.68;;;307.20;2304.00;;;;;;5083702;28;20044;-64
2023/12/14 09:05:16;;;;;;;13.88;10.73;;;307.20;2304.00;;;;;;5084520;28;20070;-64
2023/12/14 09:07:42;;;;;;;12.73;10.80;;;307.20;2304.00;;;;;;5070829;28;20063;-64
2023/12/14 09:10:08;;;;;;;13.60;11.20;;;307.20;2304.00;;;;;;5070343;28;20032;-64
2023/12/14 09:12:35;;;;;;;11.32;9.70;;;282.50;2278.40;;;;;;5071320;28;20051;-64
2023/12/14 09:15:01;;;;;;;28.17;25.25;;;282.50;2278.40;;;;;;5070446;28;20051;-65
2023/12/14 09:17:32;;;;;;;49.88;32.97;;;307.20;2304.00;;;;;;5070662;28;20016;-64
2023/12/14 09:19:59;;;;;;;51.47;33.30;;;307.20;2304.00;;;;;;5070380;28;20047;-64
2023/12/14 09:22:25;;;;;;;11.95;10.15;;;307.30;2304.00;;;;;;5062448;28;20032;-64
2023/12/14 09:24:51;;;;;;;15.57;9.63;;;307.30;2304.00;;;;;;5078392;28;20020;-64
2023/12/14 09:27:17;;;;;;;40.53;24.55;;;307.20;2304.00;;;;;;5077448;28;20478;-63
2023/12/14 09:29:43;;;;;;;34.35;22.70;;;307.20;2304.00;;;;;;5091023;28;20024;-63
2023/12/14 09:32:09;;;;;;;35.60;20.95;;;307.30;2304.00;;;;;;5076696;28;20378;-63
2023/12/14 09:34:35;;;;;;;16.73;11.82;;;307.50;2304.00;;;;;;5091030;28;20362;-63
2023/12/14 09:37:01;;;;;;;24.55;17.67;;;307.50;2304.00;;;;;;5090212;28;20024;-64
2023/12/14 09:39:27;;;;;;;17.65;14.20;;;307.50;2304.00;;;;;;5081439;28;20095;-63
2023/12/14 09:42:04;;;;;;;149.27;78.88;;;307.60;2304.00;;;;;;5072735;28;20455;-63
2023/12/14 09:44:31;;;;;;;171.35;88.57;;;307.60;2304.00;;;;;;5090514;28;20081;-63
2023/12/14 09:47:02;;;;;;;54.85;31.00;;;307.40;2304.00;;;;;;5084859;28;20051;-62
2023/12/14 09:49:29;;;;;;;20.35;14.55;;;307.50;2304.00;;;;;;5081131;28;20032;-63
2023/12/14 09:51:56;;;;;;;17.23;14.82;;;307.40;2304.00;;;;;;5069653;28;20521;-62
2023/12/14 09:54:22;;;;;;;25.27;22.67;;;307.30;2304.00;;;;;;5084071;28;20348;-63
2023/12/14 09:56:49;;;;;;;97.60;58.30;;;282.50;2278.40;;;;;;5076123;28;20099;-63
2023/12/14 09:59:16;;;;;;;28.25;19.27;;;282.40;2278.40;;;;;;5089918;28;20024;-63
2023/12/14 10:01:42;;;;;;;50.47;32.78;;;282.40;2278.40;;;;;;5089047;28;20424;-63
2023/12/14 10:04:13;;;;;;;25.23;18.80;;;282.40;2278.40;;;;;;5076291;28;20105;-63
2023/12/14 10:06:41;;;;;;;16.75;12.27;;;307.20;2304.00;;;;;;5089254;28;20036;-62
2023/12/14 10:09:13;;;;;;;33.10;19.45;;;307.20;2304.00;;;;;;5076019;28;20103;-63
2023/12/14 10:11:40;;;;;;;36.15;19.65;;;307.20;2304.00;;;;;;5064156;28;20370;-63
2023/12/14 10:14:20;;;;;;;17.17;11.95;;;307.20;2304.00;;;;;;5088342;28;20052;-63
2023/12/14 10:16:47;;;;;;;27.98;17.95;;;307.20;2304.00;;;;;;5069536;28;20029;-63
2023/12/14 10:19:12;;;;;;;79.25;41.05;;;282.50;2278.40;;;;;;5072016;28;20374;-62
2023/12/14 10:21:38;;;;;;;15.20;9.85;;;307.20;2304.00;;;;;;5089224;28;20024;-62
2023/12/14 10:24:06;;;;;;;61.58;34.03;;;307.30;2304.00;;;;;;5086119;28;20025;-63
2023/12/14 10:26:31;;;;;;;30.30;19.67;;;307.20;2304.00;;;;;;5079698;28;20107;-63
2023/12/14 10:28:57;;;;;;;12.20;8.98;;;307.30;2304.00;;;;;;5073037;28;20116;-62
2023/12/14 10:31:24;;;;;;;15.30;10.77;;;307.30;2304.00;;;;;;5085067;28;20119;-63
2023/12/14 10:33:50;;;;;;;30.55;17.20;;;307.30;2304.00;;;;;;5086133;28;20036;-63
2023/12/14 10:36:23;;;;;;;36.15;20.63;;;307.20;2304.00;;;;;;5068914;28;20031;-63
2023/12/14 10:38:53;;;;;;;42.13;22.02;;;307.30;2304.00;;;;;;5072878;28;20035;-62
2023/12/14 10:41:22;;;;;;;14.05;11.50;;;307.30;2304.00;;;;;;5089265;28;20530;-63
2023/12/14 10:43:50;;;;;;;38.35;24.98;;;307.30;2304.00;;;;;;5088417;28;20535;-63
2023/12/14 10:46:16;;;;;;;15.70;11.10;;;307.40;2304.00;;;;;;5089126;28;20024;-62
2023/12/14 10:48:45;;;;;;;113.45;54.30;;;307.40;2304.00;;;;;;5083594;28;20028;-62
2023/12/14 10:51:15;;;;;;;29.33;17.13;;;307.30;2304.00;;;;;;5081165;28;20481;-63
2023/12/14 10:53:46;;;;;;;15.90;11.80;;;307.40;2304.00;;;;;;5088475;28;20039;-63
2023/12/14 10:56:13;;;;;;;51.45;33.85;;;307.20;2304.00;;;;;;5075579;28;20032;-63
2023/12/14 10:59:06;;;;;;;25.58;20.50;;;307.20;2304.00;;;;;;5077367;28;20475;-63
2023/12/14 11:01:34;;;;;;;22.20;15.85;;;282.50;2278.40;;;;;;5079826;28;20028;-64
2023/12/14 11:04:00;;;;;;;27.42;22.30;;;282.50;2278.40;;;;;;5081129;28;20049;-65
2023/12/14 11:06:30;;;;;;;20.38;14.68;;;282.50;2278.40;;;;;;5091293;28;20487;-62
2023/12/14 11:09:10;;;;;;;19.75;14.48;;;282.40;2278.40;;;;;;5093144;28;20024;-63
2023/12/14 11:11:48;;;;;;;21.52;14.57;;;282.20;2278.40;;;;;;5085578;28;20466;-63
2023/12/14 11:14:13;;;;;;;24.95;13.35;;;282.00;2278.40;;;;;;5088845;28;20028;-63
2023/12/14 11:16:46;;;;;;;29.92;19.73;;;282.00;2278.40;;;;;;5092593;28;20032;-62
2023/12/14 11:19:24;;;;;;;31.38;18.67;;;282.00;2278.40;;;;;;5078176;28;20032;-63
2023/12/14 11:22:08;;;;;;;22.88;13.93;;;282.00;2278.40;;;;;;5080393;28;20032;-63
2023/12/14 11:24:37;;;;;;;23.17;11.73;;;282.00;2278.40;;;;;;5074570;28;20029;-63
2023/12/14 11:27:09;;;;;;;20.70;12.18;;;282.00;2278.40;;;;;;5072459;28;20037;-63
2023/12/14 11:29:38;;;;;;;19.88;12.88;;;282.00;2278.40;;;;;;5059844;28;20375;-63
2023/12/14 11:32:07;;;;;;;20.63;13.20;;;282.00;2278.40;;;;;;5062908;28;20036;-63
2023/12/14 11:34:32;;;;;;;23.58;12.10;;;282.00;2278.40;;;;;;5072328;28;20021;-63
2023/12/14 11:36:59;;;;;;;20.38;12.93;;;282.10;2278.40;;;;;;5071700;28;20089;-63
2023/12/14 11:39:26;;;;;;;16.27;12.25;;;282.00;2278.40;;;;;;5082037;28;20012;-63
2023/12/14 11:42:10;;;;;;;23.67;15.13;;;281.90;2278.40;;;;;;5078859;28;20020;-63
2023/12/14 11:44:40;;;;;;;20.23;14.88;;;282.00;2278.40;;;;;;5079949;28;20387;-63
2023/12/14 11:47:06;;;;;;;28.73;21.08;;;282.00;2278.40;;;;;;5084888;28;20056;-64
2023/12/14 11:49:32;;;;;;;16.80;12.05;;;282.10;2278.40;;;;;;5084584;28;20024;-62
2023/12/14 11:52:01;;;;;;;17.85;12.13;;;282.10;2278.40;;;;;;5085135;28;20032;-63
2023/12/14 11:54:27;;;;;;;15.60;11.75;;;282.20;2278.40;;;;;;5072105;28;20017;-62
2023/12/14 11:56:53;;;;;;;13.85;12.40;;;282.20;2278.40;;;;;;5071941;28;20145;-63
2023/12/14 11:59:20;;;;;;;16.35;10.70;;;282.20;2278.40;;;;;;5072379;28;20411;-63
2023/12/14 12:01:59;;;;;;;31.90;24.33;;;282.20;2278.40;;;;;;5071522;28;20017;-64
2023/12/14 12:04:26;;;;;;;18.73;12.65;;;282.20;2278.40;;;;;;5066644;28;20080;-63